createdAt,value
2019-05-14T00:02:22.841Z,6.95
2019-05-14T00:04:51.030Z,6.40
2019-05-14T00:07:16.327Z,5.22
2019-05-14T00:09:42.199Z,5.97
2019-05-14T00:12:08.116Z,8.10
2019-05-14T00:14:39.624Z,5.03
2019-05-14T00:17:02.170Z,5.35
2019-05-14T00:19:28.387Z,4.87
2019-05-14T00:21:54.222Z,3.05
2019-05-14T00:24:21.724Z,6.80
2019-05-14T00:26:48.638Z,8.28
2019-05-14T00:29:14.869Z,4.65
2019-05-14T00:31:42.537Z,4.72
2019-05-14T00:34:11.028Z,3.55
2019-05-14T00:36:37.314Z,5.83
2019-05-14T00:39:05.338Z,4.65
2019-05-14T00:41:31.575Z,5.87
2019-05-14T00:43:57.488Z,5.17
2019-05-14T00:46:23.354Z,14.93
2019-05-14T00:48:51.260Z,4.92
2019-05-14T00:51:16.802Z,6.30
2019-05-14T00:53:42.660Z,7.85
2019-05-14T00:56:08.498Z,6.40
2019-05-14T00:58:34.461Z,2.60
2019-05-14T01:01:01.748Z,4.67
2019-05-14T01:03:28.042Z,6.12
2019-05-14T01:05:53.870Z,2.17
2019-05-14T01:08:21.467Z,5.80
2019-05-14T01:10:47.956Z,5.45
2019-05-14T01:13:13.839Z,2.47
2019-05-14T01:15:41.516Z,5.97
2019-05-14T01:18:07.325Z,4.12
2019-05-14T01:20:33.681Z,3.25
2019-05-14T01:22:59.453Z,5.40
2019-05-14T01:25:25.752Z,5.10
2019-05-14T01:27:51.883Z,3.40
2019-05-14T01:30:17.850Z,4.12
2019-05-14T01:32:44.005Z,7.35
2019-05-14T01:35:11.838Z,3.08
2019-05-14T01:37:38.106Z,4.10
2019-05-14T01:40:06.974Z,4.47
2019-05-14T01:42:32.870Z,3.05
2019-05-14T01:44:58.708Z,5.33
2019-05-14T01:47:25.065Z,3.33
2019-05-14T01:49:51.605Z,5.25
2019-05-14T01:52:17.942Z,3.15
2019-05-14T01:54:44.169Z,9.18
2019-05-14T01:57:11.558Z,3.58
2019-05-14T01:59:38.265Z,4.25
2019-05-14T02:02:04.608Z,3.50
2019-05-14T02:04:31.644Z,3.83
2019-05-14T02:06:58.182Z,4.20
2019-05-14T02:09:24.410Z,11.95
2019-05-14T02:11:51.837Z,3.98
2019-05-14T02:14:18.501Z,2.83
2019-05-14T02:16:44.374Z,4.60
2019-05-14T02:19:11.559Z,4.42
2019-05-14T02:21:37.595Z,3.25
2019-05-14T02:24:03.824Z,3.12
2019-05-14T02:26:31.642Z,14.13
2019-05-14T02:28:57.458Z,8.85
2019-05-14T02:31:23.310Z,7.03
2019-05-14T02:33:50.535Z,5.20
2019-05-14T02:36:19.499Z,4.15
2019-05-14T02:38:44.250Z,4.72
2019-05-14T02:41:10.215Z,5.12
2019-05-14T02:43:36.210Z,6.20
2019-05-14T02:46:11.864Z,3.67
2019-05-14T02:48:30.214Z,5.92
2019-05-14T02:50:59.575Z,7.12
2019-05-14T02:53:24.069Z,6.67
2019-05-14T02:55:50.089Z,4.87
2019-05-14T02:58:20.210Z,4.25
2019-05-14T03:00:44.231Z,2.92
2019-05-14T03:03:10.462Z,8.05
2019-05-14T03:05:36.309Z,6.05
2019-05-14T03:08:02.051Z,5.78
2019-05-14T03:10:30.275Z,6.12
2019-05-14T03:12:58.880Z,5.08
2019-05-14T03:15:24.057Z,5.58
2019-05-14T03:17:49.933Z,5.17
2019-05-14T03:20:15.782Z,6.45
2019-05-14T03:22:55.490Z,8.10
2019-05-14T03:25:10.130Z,4.42
2019-05-14T03:27:36.426Z,5.37
2019-05-14T03:30:02.407Z,5.72
2019-05-14T03:32:32.884Z,9.58
2019-05-14T03:35:02.886Z,3.10
2019-05-14T03:37:24.748Z,6.30
2019-05-14T03:39:50.932Z,5.90
2019-05-14T03:42:19.414Z,6.78
2019-05-14T03:44:44.447Z,8.33
2019-05-14T03:47:10.959Z,6.50
2019-05-14T03:49:39.783Z,3.90
2019-05-14T03:52:04.623Z,5.45
2019-05-14T03:54:30.536Z,6.75
2019-05-14T03:57:00.122Z,9.03
2019-05-14T03:59:25.166Z,4.97
2019-05-14T04:01:51.434Z,5.95
2019-05-14T04:04:19.429Z,6.92
2019-05-14T04:06:44.958Z,5.80
2019-05-14T04:09:10.822Z,13.05
2019-05-14T04:11:39.851Z,7.70
2019-05-14T04:14:05.498Z,8.95
2019-05-14T04:16:31.335Z,7.53
2019-05-14T04:18:59.603Z,5.80
2019-05-14T04:21:29.522Z,10.53
2019-05-14T04:23:54.511Z,8.15
2019-05-14T04:26:20.854Z,9.45
2019-05-14T04:28:49.778Z,8.43
2019-05-14T04:31:15.006Z,15.20
2019-05-14T04:33:42.794Z,7.35
2019-05-14T04:36:09.918Z,5.70
2019-05-14T04:38:36.362Z,11.22
2019-05-14T04:41:02.941Z,7.05
2019-05-14T04:43:29.591Z,12.30
2019-05-14T04:45:58.874Z,13.43
2019-05-14T04:48:32.548Z,8.20
2019-05-14T04:50:51.516Z,10.23
2019-05-14T04:53:19.556Z,8.08
2019-05-14T04:55:49.243Z,9.18
2019-05-14T04:58:13.910Z,8.20
2019-05-14T05:00:39.743Z,7.58
2019-05-14T05:03:08.487Z,7.08
2019-05-14T05:05:34.841Z,8.10
2019-05-14T05:08:00.718Z,5.80
2019-05-14T05:10:29.783Z,7.12
2019-05-14T05:12:54.755Z,7.33
2019-05-14T05:15:20.626Z,7.12
2019-05-14T05:17:51.714Z,7.95
2019-05-14T05:20:14.746Z,9.25
2019-05-14T05:22:40.996Z,6.65
2019-05-14T05:25:08.364Z,7.97
2019-05-14T05:27:34.245Z,9.40
2019-05-14T05:30:00.130Z,9.43
2019-05-14T05:32:28.374Z,7.97
2019-05-14T05:34:53.641Z,9.40
2019-05-14T05:37:19.511Z,11.38
2019-05-14T05:39:45.398Z,10.25
2019-05-14T05:42:11.524Z,11.63
2019-05-14T05:44:39.320Z,9.50
2019-05-14T05:50:19.326Z,10.53
2019-05-14T05:52:45.243Z,11.60
2019-05-14T05:55:11.110Z,9.43
2019-05-14T05:57:39.359Z,6.70
2019-05-14T06:00:04.907Z,7.15
2019-05-14T06:02:30.741Z,9.53
2019-05-14T06:04:58.628Z,7.00
2019-05-14T06:07:24.518Z,9.98
2019-05-14T06:09:50.452Z,6.90
2019-05-14T06:12:18.800Z,9.63
2019-05-14T06:14:44.216Z,7.65
2019-05-14T06:17:10.360Z,6.70
2019-05-14T06:19:38.227Z,8.80
2019-05-14T06:22:04.347Z,12.90
2019-05-14T06:24:30.218Z,7.90
2019-05-14T06:26:58.382Z,8.85
2019-05-14T06:29:23.957Z,9.28
2019-05-14T06:31:49.792Z,7.30
2019-05-14T06:34:15.624Z,12.55
2019-05-14T06:36:41.485Z,10.32
2019-05-14T06:39:09.135Z,9.18
2019-05-14T06:41:35.124Z,7.78
2019-05-14T06:44:00.971Z,9.38
2019-05-14T06:46:28.449Z,11.50
2019-05-14T06:48:54.353Z,8.88
2019-05-14T06:51:20.382Z,10.58
2019-05-14T06:53:46.166Z,9.40
2019-05-14T06:56:12.029Z,8.45
2019-05-14T06:58:38.986Z,10.48
2019-05-14T07:01:05.029Z,9.00
2019-05-14T07:03:30.857Z,8.43
2019-05-14T07:05:59.390Z,9.60
2019-05-14T07:08:24.885Z,12.13
2019-05-14T07:10:50.981Z,8.93
2019-05-14T07:13:19.562Z,8.50
2019-05-14T07:15:45.424Z,8.23
2019-05-14T07:18:15.641Z,15.35
2019-05-14T07:20:41.654Z,13.22
2019-05-14T07:23:08.335Z,9.43
2019-05-14T07:25:34.422Z,9.45
2019-05-14T07:28:00.254Z,12.28
2019-05-14T07:30:28.315Z,9.20
2019-05-14T07:32:53.745Z,11.18
2019-05-14T07:35:19.845Z,12.45
2019-05-14T07:37:45.719Z,8.85
2019-05-14T07:40:11.885Z,9.20
2019-05-14T07:42:38.573Z,7.85
2019-05-14T07:45:04.784Z,11.20
2019-05-14T07:47:30.622Z,13.45
2019-05-14T07:49:58.257Z,10.88
2019-05-14T07:52:24.135Z,14.58
2019-05-14T07:54:50.274Z,10.32
2019-05-14T07:57:18.949Z,11.48
2019-05-14T07:59:44.351Z,9.15
2019-05-14T08:02:12.802Z,11.00
2019-05-14T08:04:38.416Z,12.25
2019-05-14T08:07:04.281Z,14.25
2019-05-14T08:09:30.452Z,10.13
2019-05-14T08:11:58.560Z,11.53
2019-05-14T08:14:24.239Z,12.82
2019-05-14T08:16:50.169Z,10.63
2019-05-14T08:19:26.036Z,10.55
2019-05-14T08:21:44.222Z,10.00
2019-05-14T08:24:10.055Z,10.40
2019-05-14T08:26:38.187Z,10.30
2019-05-14T08:29:04.128Z,11.53
2019-05-14T08:31:29.993Z,9.93
2019-05-14T08:33:55.813Z,12.68
2019-05-14T08:36:21.658Z,12.65
2019-05-14T08:38:49.966Z,12.03
2019-05-14T08:41:15.163Z,10.50
2019-05-14T08:43:40.998Z,11.70
2019-05-14T08:46:08.273Z,10.70
2019-05-14T08:48:34.180Z,11.73
2019-05-14T08:51:00.273Z,11.05
2019-05-14T08:53:28.552Z,12.33
2019-05-14T08:55:54.039Z,13.60
2019-05-14T08:58:20.420Z,11.45
2019-05-14T09:00:48.307Z,11.63
2019-05-14T09:03:14.010Z,12.37
2019-05-14T09:05:39.824Z,11.45
2019-05-14T09:08:05.702Z,10.72
2019-05-14T09:10:31.535Z,8.95
2019-05-14T09:12:58.359Z,11.93
2019-05-14T09:15:24.239Z,9.28
2019-05-14T09:17:50.068Z,13.10
2019-05-14T09:20:18.411Z,7.60
2019-05-14T09:22:43.598Z,8.00
2019-05-14T09:25:09.490Z,7.87
2019-05-14T09:27:35.345Z,7.62
2019-05-14T09:30:01.483Z,11.03
2019-05-14T09:32:29.204Z,5.42
2019-05-14T09:34:54.996Z,8.18
2019-05-14T09:37:20.832Z,8.48
2019-05-14T09:39:48.667Z,6.28
2019-05-14T09:42:14.615Z,8.30
2019-05-14T09:44:40.453Z,13.62
2019-05-14T09:47:08.539Z,8.53
2019-05-14T09:49:34.083Z,6.85
2019-05-14T09:52:00.196Z,5.08
2019-05-14T09:54:28.607Z,8.08
2019-05-14T09:56:53.952Z,10.30
2019-05-14T09:59:20.073Z,9.00
2019-05-14T10:01:46.183Z,9.23
2019-05-14T10:04:12.334Z,7.75
2019-05-14T10:06:39.168Z,9.78
2019-05-14T10:09:05.523Z,6.33
2019-05-14T10:11:31.770Z,8.18
2019-05-14T10:13:59.608Z,6.25
2019-05-14T10:16:25.503Z,8.73
2019-05-14T10:18:52.979Z,7.83
2019-05-14T10:21:19.233Z,6.25
2019-05-14T10:23:45.098Z,7.83
2019-05-14T10:26:10.931Z,5.47
2019-05-14T10:28:39.470Z,7.90
2019-05-14T10:31:04.417Z,7.15
2019-05-14T10:33:30.276Z,5.85
2019-05-14T10:35:58.625Z,8.80
2019-05-14T10:38:23.794Z,5.78
2019-05-14T10:40:49.677Z,7.17
2019-05-14T10:43:15.554Z,7.30
2019-05-14T10:45:41.382Z,6.60
2019-05-14T10:48:09.664Z,5.15
2019-05-14T10:50:52.269Z,5.55
2019-05-14T10:53:03.450Z,6.10
2019-05-14T10:55:29.625Z,6.62
2019-05-14T10:57:58.279Z,4.33
2019-05-14T11:00:23.756Z,5.45
2019-05-14T11:02:49.645Z,4.83
2019-05-14T11:05:15.509Z,8.90
2019-05-14T11:07:41.934Z,6.10
2019-05-14T11:10:09.230Z,5.30
2019-05-14T11:12:35.157Z,7.17
2019-05-14T11:15:00.982Z,9.85
2019-05-14T11:17:29.036Z,5.22
2019-05-14T11:19:54.803Z,5.95
2019-05-14T11:22:20.620Z,5.22
2019-05-14T11:24:48.975Z,5.03
2019-05-14T11:27:14.122Z,6.30
2019-05-14T11:29:40.252Z,7.35
2019-05-14T11:32:09.348Z,6.70
2019-05-14T11:34:34.119Z,8.30
2019-05-14T11:36:59.955Z,4.55
2019-05-14T11:39:25.822Z,5.65
2019-05-14T11:41:51.925Z,5.53
2019-05-14T11:44:17.749Z,5.92
2019-05-14T11:46:56.315Z,5.20
2019-05-14T11:49:11.550Z,6.37
2019-05-14T11:51:59.359Z,5.87
2019-05-14T11:54:05.427Z,5.58
2019-05-14T11:56:31.268Z,5.53
2019-05-14T11:58:59.111Z,7.20
2019-05-14T12:01:25.087Z,7.05
2019-05-14T12:03:50.929Z,8.00
2019-05-14T12:06:18.601Z,4.97
2019-05-14T12:08:44.614Z,7.72
2019-05-14T12:11:10.445Z,7.47
2019-05-14T12:13:39.195Z,4.90
2019-05-14T12:16:03.962Z,7.75
2019-05-14T12:18:30.286Z,6.50
2019-05-14T12:20:59.183Z,5.42
2019-05-14T12:23:24.414Z,6.42
2019-05-14T12:25:50.295Z,7.80
2019-05-14T12:28:18.923Z,5.72
2019-05-14T12:30:44.024Z,6.53
2019-05-14T12:33:09.892Z,6.58
2019-05-14T12:35:35.990Z,7.08
2019-05-14T12:38:01.850Z,7.17
2019-05-14T12:40:28.899Z,5.87
2019-05-14T12:42:54.959Z,6.55
2019-05-14T12:45:20.826Z,6.33
2019-05-14T12:47:49.794Z,5.75
2019-05-14T12:50:14.333Z,5.90
2019-05-14T12:52:40.172Z,7.72
2019-05-14T12:55:08.861Z,9.03
2019-05-14T12:57:33.926Z,6.60
2019-05-14T12:59:59.753Z,5.92
2019-05-14T13:02:25.754Z,10.10
2019-05-14T13:04:51.575Z,3.70
2019-05-14T13:07:19.305Z,7.70
2019-05-14T13:09:45.166Z,7.35
2019-05-14T13:12:11.532Z,4.25
2019-05-14T13:14:39.419Z,3.92
2019-05-14T13:17:05.085Z,4.97
2019-05-14T13:19:30.989Z,5.08
2019-05-14T13:22:12.098Z,6.60
2019-05-14T13:24:24.502Z,6.10
2019-05-14T13:26:50.607Z,5.58
2019-05-14T13:29:19.131Z,4.97
2019-05-14T13:31:44.138Z,7.53
2019-05-14T13:34:10.006Z,4.95
2019-05-14T13:36:35.913Z,4.08
2019-05-14T13:39:01.904Z,2.77
2019-05-14T13:41:28.489Z,5.70
2019-05-14T13:43:54.611Z,4.95
2019-05-14T13:46:20.486Z,3.95
2019-05-14T13:48:49.592Z,5.67
2019-05-14T13:51:13.971Z,2.42
2019-05-14T13:53:40.127Z,7.47
2019-05-14T13:56:08.768Z,4.35
2019-05-14T13:58:33.613Z,2.77
2019-05-14T14:00:59.717Z,4.80
2019-05-14T14:03:28.959Z,4.87
2019-05-14T14:05:53.532Z,6.50
2019-05-14T14:08:19.525Z,5.00
2019-05-14T14:10:52.288Z,6.50
2019-05-14T14:13:13.017Z,3.75
2019-05-14T14:15:38.901Z,7.03
2019-05-14T14:18:04.729Z,4.58
2019-05-14T14:20:30.563Z,4.30
2019-05-14T14:22:58.643Z,4.58
2019-05-14T14:25:24.089Z,3.47
2019-05-14T14:27:49.917Z,4.40
2019-05-14T14:30:16.077Z,6.95
2019-05-14T14:32:41.945Z,4.15
2019-05-14T14:35:08.747Z,5.60
2019-05-14T14:37:34.995Z,4.15
2019-05-14T14:40:00.956Z,3.67
2019-05-14T14:42:29.730Z,5.78
2019-05-14T14:44:54.912Z,3.15
2019-05-14T14:47:21.030Z,3.15
2019-05-14T14:49:51.235Z,5.45
2019-05-14T14:52:14.560Z,7.95
2019-05-14T14:54:40.424Z,3.65
2019-05-14T14:57:08.348Z,4.28
2019-05-14T14:59:34.018Z,4.85
2019-05-14T15:01:59.994Z,3.90
2019-05-14T15:04:25.891Z,5.12
2019-05-14T15:06:51.780Z,4.53
2019-05-14T15:09:17.617Z,4.10
2019-05-14T15:11:43.731Z,5.28
2019-05-14T15:14:09.705Z,8.98
2019-05-14T15:16:38.822Z,5.10
2019-05-14T15:19:03.239Z,4.42
2019-05-14T15:21:29.979Z,6.00
2019-05-14T15:24:07.251Z,4.15
2019-05-14T15:26:24.192Z,4.17
2019-05-14T15:28:50.034Z,3.85
2019-05-14T15:31:15.908Z,4.67
2019-05-14T15:33:42.003Z,2.72
2019-05-14T15:36:09.101Z,4.45
2019-05-14T15:38:35.202Z,5.30
2019-05-14T15:41:01.290Z,4.47
2019-05-14T15:43:28.566Z,3.22
2019-05-14T15:45:54.481Z,5.67
2019-05-14T15:48:20.635Z,5.03
2019-05-14T15:50:49.896Z,5.22
2019-05-14T15:53:14.195Z,4.10
2019-05-14T15:55:40.354Z,5.17
2019-05-14T15:58:08.539Z,3.60
2019-05-14T16:00:33.863Z,5.47
2019-05-14T16:03:00.389Z,2.27
2019-05-14T16:05:28.458Z,3.67
2019-05-14T16:07:53.974Z,3.60
2019-05-14T16:10:21.659Z,4.05
2019-05-14T16:12:49.654Z,3.37
2019-05-14T16:15:15.109Z,5.50
2019-05-14T16:17:50.599Z,3.33
2019-05-14T16:20:09.183Z,4.17
2019-05-14T16:22:35.070Z,3.67
2019-05-14T16:25:01.277Z,3.52
2019-05-14T16:27:29.839Z,4.42
2019-05-14T16:29:55.081Z,2.45
2019-05-14T16:32:20.917Z,8.40
2019-05-14T16:34:48.723Z,3.27
2019-05-14T16:37:14.411Z,2.77
2019-05-14T16:39:40.507Z,2.17
2019-05-14T16:42:06.394Z,5.37
2019-05-14T16:44:32.243Z,5.53
2019-05-14T16:46:58.798Z,5.08
2019-05-14T16:49:24.666Z,4.37
2019-05-14T16:51:50.805Z,4.78
2019-05-14T16:54:18.233Z,2.92
2019-05-14T16:56:44.211Z,5.50
2019-05-14T16:59:10.069Z,3.60
2019-05-14T17:01:36.213Z,3.52
2019-05-14T17:04:02.035Z,3.58
2019-05-14T17:06:29.282Z,5.05
2019-05-14T17:08:55.330Z,5.12
2019-05-14T17:11:21.426Z,5.70
2019-05-14T17:13:49.023Z,7.28
2019-05-14T17:16:15.008Z,3.08
2019-05-14T17:18:40.890Z,4.55
2019-05-14T17:21:09.126Z,4.65
2019-05-14T17:23:34.350Z,7.35
2019-05-14T17:26:00.578Z,4.08
2019-05-14T17:28:28.579Z,2.62
2019-05-14T17:30:54.041Z,3.72
2019-05-14T17:33:19.906Z,5.72
2019-05-14T17:35:48.151Z,3.85
2019-05-14T17:38:13.792Z,3.22
2019-05-14T17:40:39.861Z,7.67
2019-05-14T17:43:08.617Z,2.35
2019-05-14T17:45:33.981Z,3.50
2019-05-14T17:47:59.809Z,3.72
2019-05-14T17:50:25.698Z,3.30
2019-05-14T17:52:56.419Z,2.62
2019-05-14T17:55:19.512Z,3.98
2019-05-14T17:57:48.657Z,3.08
2019-05-14T18:00:13.433Z,3.08
2019-05-14T18:02:39.258Z,6.30
2019-05-14T18:05:05.380Z,3.17
2019-05-14T18:07:31.266Z,5.05
2019-05-14T18:09:58.822Z,3.55
2019-05-14T18:12:25.000Z,3.20
2019-05-14T18:14:51.121Z,3.95
2019-05-14T18:17:18.868Z,2.37
2019-05-14T18:19:44.624Z,3.62
2019-05-14T18:22:10.722Z,2.75
2019-05-14T18:24:39.061Z,3.90
2019-05-14T18:27:04.561Z,5.10
2019-05-14T18:29:30.724Z,4.50
2019-05-14T18:32:00.967Z,2.65
2019-05-14T18:34:24.528Z,4.50
2019-05-14T18:36:50.625Z,4.40
2019-05-14T18:39:20.233Z,3.10
2019-05-14T18:41:44.123Z,1.90
2019-05-14T18:44:09.949Z,2.58
2019-05-14T18:46:35.788Z,3.40
2019-05-14T18:49:01.648Z,6.97
2019-05-14T18:51:28.724Z,4.87
2019-05-14T18:53:54.710Z,4.08
2019-05-14T18:56:24.235Z,3.20
2019-05-14T18:58:48.965Z,2.87
2019-05-14T19:01:15.188Z,4.12
2019-05-14T19:03:41.222Z,2.15
2019-05-14T19:06:07.053Z,4.78
2019-05-14T19:08:32.887Z,3.02
2019-05-14T19:10:59.539Z,4.72
2019-05-14T19:13:28.017Z,3.10
2019-05-14T19:15:53.561Z,4.97
2019-05-14T19:18:19.442Z,3.80
2019-05-14T19:20:45.266Z,3.12
2019-05-14T19:23:11.370Z,2.20
2019-05-14T19:25:38.902Z,6.33
2019-05-14T19:28:04.883Z,3.15
2019-05-14T19:30:30.994Z,3.37
2019-05-14T19:32:56.826Z,4.20
2019-05-14T19:35:22.947Z,5.08
2019-05-14T19:37:48.904Z,3.42
2019-05-14T19:40:14.719Z,4.03
2019-05-14T19:42:40.551Z,3.55
2019-05-14T19:45:08.370Z,2.80
2019-05-14T19:47:34.075Z,4.20
2019-05-14T19:49:59.915Z,3.33
2019-05-14T19:52:28.110Z,2.25
2019-05-14T19:54:53.698Z,4.30
2019-05-14T19:57:19.824Z,2.20
2019-05-14T19:59:46.151Z,3.30
2019-05-14T20:02:12.047Z,3.37
2019-05-14T20:04:38.066Z,6.50
2019-05-14T20:07:03.899Z,3.60
2019-05-14T20:09:29.730Z,5.45
2019-05-14T20:11:57.992Z,2.65
2019-05-14T20:14:23.548Z,2.77
2019-05-14T20:16:49.430Z,3.00
2019-05-14T20:19:15.561Z,4.17
2019-05-14T20:21:41.434Z,5.97
2019-05-14T20:24:07.307Z,4.10
2019-05-14T20:26:33.414Z,3.95
2019-05-14T20:28:59.333Z,4.05
2019-05-14T20:31:25.480Z,2.92
2019-05-14T20:33:52.201Z,4.97
2019-05-14T20:36:18.770Z,3.95
2019-05-14T20:38:44.722Z,3.05
2019-05-14T20:41:10.587Z,2.55
2019-05-14T20:43:38.426Z,5.10
2019-05-14T20:46:04.133Z,2.83
2019-05-14T20:48:29.978Z,4.00
2019-05-14T20:50:57.856Z,5.78
2019-05-14T20:53:23.736Z,3.27
2019-05-14T20:55:49.565Z,5.40
2019-05-14T20:58:15.399Z,8.23
2019-05-14T21:00:41.698Z,5.20
2019-05-14T21:03:08.891Z,2.42
2019-05-14T21:05:35.234Z,3.37
2019-05-14T21:08:01.373Z,4.75
2019-05-14T21:10:29.155Z,3.60
2019-05-14T21:12:54.853Z,6.35
2019-05-14T21:15:20.670Z,3.80
2019-05-14T21:17:50.166Z,3.17
2019-05-14T21:20:14.720Z,3.67
2019-05-14T21:22:40.642Z,3.25
2019-05-14T21:25:11.303Z,3.58
2019-05-14T21:27:44.619Z,3.83
2019-05-14T21:30:02.201Z,4.85
2019-05-14T21:32:28.402Z,3.58
2019-05-14T21:34:54.246Z,3.80
2019-05-14T21:37:20.365Z,5.80
2019-05-14T21:39:48.907Z,4.03
2019-05-14T21:42:14.135Z,6.20
2019-05-14T21:44:40.262Z,4.55
2019-05-14T21:47:10.007Z,7.50
2019-05-14T21:49:36.349Z,2.22
2019-05-14T21:52:02.473Z,3.77
2019-05-14T21:54:31.052Z,6.60
2019-05-14T21:56:55.983Z,3.83
2019-05-14T21:59:21.905Z,4.47
2019-05-14T22:01:48.518Z,3.02
2019-05-14T22:04:15.426Z,3.22
2019-05-14T22:06:41.613Z,3.83
2019-05-14T22:09:08.709Z,3.08
2019-05-14T22:11:34.655Z,3.45
2019-05-14T22:14:00.561Z,4.35
2019-05-14T22:16:28.108Z,5.05
2019-05-14T22:18:54.025Z,4.03
2019-05-14T22:21:19.928Z,3.47
2019-05-14T22:23:48.020Z,4.97
2019-05-14T22:26:13.529Z,4.35
2019-05-14T22:28:39.658Z,4.40
2019-05-14T22:31:05.588Z,6.83
2019-05-14T22:33:31.465Z,6.37
2019-05-14T22:35:58.107Z,8.08
2019-05-14T22:38:23.953Z,4.55
2019-05-14T22:40:50.158Z,6.58
2019-05-14T22:43:18.180Z,8.58
2019-05-14T22:45:44.226Z,8.45
2019-05-14T22:48:10.047Z,4.60
2019-05-14T22:50:41.030Z,5.00
2019-05-14T22:53:03.806Z,5.12
2019-05-14T22:55:31.379Z,4.05
2019-05-14T22:57:59.294Z,4.75
2019-05-14T23:00:24.927Z,4.80
2019-05-14T23:02:50.793Z,8.08
2019-05-14T23:05:19.086Z,3.70
2019-05-14T23:07:44.663Z,6.45
2019-05-14T23:10:10.482Z,6.55
2019-05-14T23:12:38.408Z,6.53
2019-05-14T23:15:04.952Z,6.92
2019-05-14T23:17:31.073Z,5.67
2019-05-14T23:19:58.063Z,5.83
2019-05-14T23:22:24.249Z,6.12
2019-05-14T23:24:50.146Z,5.03
2019-05-14T23:27:18.709Z,5.75
2019-05-14T23:29:43.917Z,5.33
2019-05-14T23:32:09.746Z,4.28
2019-05-14T23:34:37.858Z,7.17
2019-05-14T23:37:03.261Z,6.20
2019-05-14T23:39:29.357Z,4.40
2019-05-14T23:41:55.309Z,6.78
2019-05-14T23:44:21.183Z,5.80
2019-05-14T23:46:48.241Z,5.30
2019-05-14T23:49:14.134Z,5.12
2019-05-14T23:51:40.256Z,4.80
2019-05-14T23:54:08.567Z,4.97
2019-05-14T23:56:34.286Z,6.85
2019-05-14T23:59:02.091Z,6.35
